createdAt,value
2022-09-28T00:02:28.369Z,8
2022-09-28T00:12:28.717Z,7.9
2022-09-28T00:22:28.948Z,7.9
2022-09-28T00:32:30.012Z,7.8
2022-09-28T00:42:30.575Z,7.7
2022-09-28T00:52:31.033Z,7.5
2022-09-28T01:02:32.223Z,7.6
2022-09-28T01:12:32.782Z,7.6
2022-09-28T01:22:33.871Z,7.6
2022-09-28T01:32:34.794Z,7.6
2022-09-28T01:42:35.110Z,7.7
2022-09-28T01:52:35.728Z,7.7
2022-09-28T02:02:36.599Z,7.7
2022-09-28T02:22:38.097Z,7.6
2022-09-28T02:32:39.070Z,7.6
2022-09-28T02:42:40.055Z,7.6
2022-09-28T02:52:40.782Z,7.7
2022-09-28T03:02:41.183Z,7.7
2022-09-28T03:12:42.004Z,7.7
2022-09-28T03:22:42.824Z,7.7
2022-09-28T03:32:43.750Z,7.7
2022-09-28T03:42:43.905Z,7.7
2022-09-28T03:52:44.821Z,7.7
2022-09-28T04:02:45.201Z,7.7
2022-09-28T04:12:45.363Z,7.7
2022-09-28T04:22:46.084Z,7.7
2022-09-28T04:32:46.433Z,7.7
2022-09-28T04:42:47.108Z,7.8
2022-09-28T04:52:47.402Z,7.8
2022-09-28T05:02:48.470Z,7.8
2022-09-28T05:12:49.510Z,7.8
2022-09-28T05:26:37.671Z,7.8
2022-09-28T06:16:02.476Z,7.9
2022-09-28T07:16:06.655Z,8.3
2022-09-28T08:16:10.896Z,8.7
2022-09-28T09:16:14.526Z,9.7
2022-09-28T09:36:15.835Z,9.9
2022-09-28T10:36:20.111Z,10.7
2022-09-28T10:46:20.556Z,11
2022-09-28T10:56:20.569Z,11.1
2022-09-28T11:06:20.884Z,11.4
2022-09-28T11:26:21.583Z,11.7
2022-09-28T11:46:23.348Z,12
2022-09-28T11:56:23.970Z,12.6
2022-09-28T12:26:47.660Z,12.8
2022-09-28T12:36:31.565Z,12.7
2022-09-28T12:46:31.974Z,13.2
2022-09-28T12:56:32.551Z,13.3
2022-09-28T13:36:34.031Z,12.5
2022-09-28T14:36:36.634Z,13
2022-09-28T14:46:36.908Z,13
2022-09-28T14:56:37.653Z,14.3
2022-09-28T15:06:38.699Z,13.9
2022-09-28T15:16:39.263Z,13.8
2022-09-28T15:36:39.930Z,13
2022-09-28T15:46:40.542Z,12.8
2022-09-28T15:56:41.348Z,12.5
2022-09-28T16:06:41.901Z,12.3
2022-09-28T16:26:42.684Z,12
2022-09-28T16:36:43.134Z,11.9
2022-09-28T18:16:49.112Z,10.4
2022-09-28T18:26:49.551Z,10.3
2022-09-28T18:46:50.438Z,10
2022-09-28T18:56:51.042Z,9.8
2022-09-28T19:06:51.378Z,9.7
2022-09-28T19:16:51.840Z,9.6
2022-09-28T19:26:52.433Z,9.2
2022-09-28T19:56:54.900Z,8.9
2022-09-28T20:06:55.568Z,8.9
2022-09-28T20:16:55.921Z,8.7
2022-09-28T20:36:57.479Z,8.4
2022-09-28T20:46:57.648Z,8.3
2022-09-28T21:06:59.037Z,8.1
